Time;durP1;ratioP1;P1;durP2;ratioP2;P2;SDS_P1;SDS_P2;PMS_P1;PMS_P2;Temp;Humidity;BMP_temperature;BMP_pressure;BME280_temperature;BME280_humidity;BME280_pressure;Samples;Min_cycle;Max_cycle;Signal;HPM_P1;HPM_P2
2021/01/16 00:00:57;;;;;;;1.20;0.40;;;;;;;;;;4986057;28;20929;-48
2021/01/16 00:03:23;;;;;;;1.65;0.50;;;;;;;;;;4993009;28;20082;-47
2021/01/16 00:05:50;;;;;;;2.40;1.02;;;;;;;;;;4992564;28;20201;-48
2021/01/16 00:08:16;;;;;;;2.72;0.50;;;;;;;;;;4994532;28;20471;-51
2021/01/16 00:10:44;;;;;;;3.63;0.52;;;;;;;;;;4995274;28;20070;-48
2021/01/16 00:13:11;;;;;;;2.47;0.60;;;;;;;;;;4993698;28;20038;-49
2021/01/16 00:15:37;;;;;;;1.88;0.50;;;;;;;;;;4991773;28;20042;-47
2021/01/16 00:18:04;;;;;;;1.00;0.40;;;;;;;;;;4992343;28;20062;-50
2021/01/16 00:20:30;;;;;;;3.75;0.60;;;;;;;;;;4990965;28;20807;-48
2021/01/16 00:22:56;;;;;;;1.65;0.50;;;;;;;;;;4994176;28;20053;-52
2021/01/16 00:25:22;;;;;;;2.22;0.55;;;;;;;;;;4992221;28;20046;-54
2021/01/16 00:27:48;;;;;;;4.70;0.60;;;;;;;;;;4993093;28;20072;-48
2021/01/16 00:30:14;;;;;;;3.38;0.70;;;;;;;;;;4992625;28;20511;-51
2021/01/16 00:32:40;;;;;;;1.30;0.47;;;;;;;;;;4992730;28;20076;-49
2021/01/16 00:35:10;;;;;;;2.10;0.43;;;;;;;;;;4993282;28;20528;-51
2021/01/16 00:37:37;;;;;;;4.47;0.50;;;;;;;;;;4991993;28;20061;-52
2021/01/16 00:40:07;;;;;;;3.22;0.73;;;;;;;;;;4994533;28;20045;-50
2021/01/16 00:42:32;;;;;;;2.50;0.57;;;;;;;;;;4993681;28;21107;-51
2021/01/16 00:44:59;;;;;;;1.67;0.50;;;;;;;;;;4994030;28;20149;-52
2021/01/16 00:47:25;;;;;;;3.10;0.60;;;;;;;;;;4993583;28;20073;-52
2021/01/16 00:49:51;;;;;;;2.28;0.63;;;;;;;;;;4996051;28;20070;-52
2021/01/16 00:52:16;;;;;;;2.20;0.52;;;;;;;;;;4994668;28;20034;-49
2021/01/16 00:54:42;;;;;;;1.48;0.55;;;;;;;;;;4993778;28;20042;-49
2021/01/16 00:57:08;;;;;;;2.67;0.60;;;;;;;;;;4995882;28;20034;-51
2021/01/16 00:59:34;;;;;;;2.13;0.50;;;;;;;;;;4992239;28;20048;-48
2021/01/16 01:02:00;;;;;;;1.27;0.40;;;;;;;;;;4993163;28;20048;-52
2021/01/16 01:04:26;;;;;;;1.95;0.50;;;;;;;;;;4993738;28;20034;-47
2021/01/16 01:06:52;;;;;;;1.95;0.88;;;;;;;;;;4994023;28;20053;-49
2021/01/16 01:09:18;;;;;;;1.90;0.60;;;;;;;;;;4994382;28;20049;-51
2021/01/16 01:11:43;;;;;;;1.10;0.47;;;;;;;;;;4994653;28;20045;-48
2021/01/16 01:14:09;;;;;;;4.75;0.60;;;;;;;;;;4992917;28;20073;-48
2021/01/16 01:16:35;;;;;;;2.17;0.63;;;;;;;;;;4990527;28;20070;-51
2021/01/16 01:19:01;;;;;;;2.05;0.50;;;;;;;;;;4993082;28;20068;-48
2021/01/16 01:21:27;;;;;;;1.30;0.50;;;;;;;;;;4991113;28;20073;-50
2021/01/16 01:23:53;;;;;;;2.80;0.50;;;;;;;;;;4996588;28;20063;-51
2021/01/16 01:26:19;;;;;;;1.60;0.47;;;;;;;;;;4990743;28;20058;-48
2021/01/16 01:28:47;;;;;;;2.35;0.50;;;;;;;;;;4993691;28;20590;-48
2021/01/16 01:31:13;;;;;;;2.08;0.60;;;;;;;;;;4993859;28;20546;-49
2021/01/16 01:33:39;;;;;;;1.83;0.50;;;;;;;;;;4991957;28;20051;-53
2021/01/16 01:36:05;;;;;;;0.98;0.40;;;;;;;;;;4993085;28;20735;-49
2021/01/16 01:38:31;;;;;;;2.47;0.60;;;;;;;;;;4994802;28;20551;-48
2021/01/16 01:41:00;;;;;;;3.92;0.50;;;;;;;;;;4977189;28;20144;-48
2021/01/16 01:43:26;;;;;;;2.35;0.57;;;;;;;;;;4992725;28;20041;-48
2021/01/16 01:45:52;;;;;;;1.73;0.50;;;;;;;;;;4991628;28;20497;-48
2021/01/16 01:48:18;;;;;;;2.38;0.47;;;;;;;;;;4991348;28;20073;-49
2021/01/16 01:50:44;;;;;;;3.30;0.60;;;;;;;;;;4993557;28;20125;-48
2021/01/16 01:53:11;;;;;;;1.92;0.57;;;;;;;;;;4993441;28;20042;-47
2021/01/16 01:55:37;;;;;;;0.75;0.40;;;;;;;;;;4988858;28;20069;-47
2021/01/16 01:58:03;;;;;;;1.95;0.52;;;;;;;;;;4993537;28;20049;-47
2021/01/16 02:00:29;;;;;;;5.00;0.60;;;;;;;;;;4993330;28;20187;-49
2021/01/16 02:02:59;;;;;;;1.02;0.40;;;;;;;;;;4992201;28;20046;-49
2021/01/16 02:05:25;;;;;;;1.80;0.60;;;;;;;;;;4990977;28;20034;-50
2021/01/16 02:07:51;;;;;;;1.98;0.63;;;;;;;;;;4990121;28;20050;-48
2021/01/16 02:10:22;;;;;;;2.13;0.60;;;;;;;;;;4991286;28;20046;-52
2021/01/16 02:12:49;;;;;;;2.42;0.60;;;;;;;;;;4992187;28;20038;-49
2021/01/16 02:15:19;;;;;;;1.67;0.50;;;;;;;;;;4993450;28;20053;-49
2021/01/16 02:17:49;;;;;;;3.00;0.63;;;;;;;;;;4991245;28;20037;-48
2021/01/16 02:20:22;;;;;;;1.95;0.55;;;;;;;;;;4990574;28;20539;-49
2021/01/16 02:22:54;;;;;;;3.35;0.60;;;;;;;;;;4986666;28;20041;-49
2021/01/16 02:25:33;;;;;;;1.63;0.55;;;;;;;;;;4991149;28;20050;-50
2021/01/16 02:28:02;;;;;;;1.98;0.60;;;;;;;;;;4991035;28;20131;-49
2021/01/16 02:30:28;;;;;;;2.25;0.63;;;;;;;;;;4992251;28;20813;-52
2021/01/16 02:32:55;;;;;;;3.05;0.60;;;;;;;;;;4991143;28;20046;-48
2021/01/16 02:35:22;;;;;;;1.33;0.50;;;;;;;;;;4991877;28;20055;-48
2021/01/16 02:38:04;;;;;;;2.00;0.60;;;;;;;;;;4991545;28;20055;-50
2021/01/16 02:40:39;;;;;;;2.97;0.60;;;;;;;;;;4989752;28;20144;-48
2021/01/16 02:43:11;;;;;;;1.88;0.50;;;;;;;;;;4991041;28;20465;-48
2021/01/16 02:45:42;;;;;;;1.20;0.40;;;;;;;;;;4988114;28;21616;-48
2021/01/16 02:48:07;;;;;;;1.98;0.60;;;;;;;;;;4992530;28;20042;-49
2021/01/16 02:50:39;;;;;;;2.50;0.50;;;;;;;;;;4990434;28;20499;-49
2021/01/16 02:53:06;;;;;;;1.25;0.45;;;;;;;;;;4993205;28;20038;-48
2021/01/16 02:55:32;;;;;;;1.95;0.50;;;;;;;;;;4988606;28;20038;-53
2021/01/16 02:57:59;;;;;;;1.60;0.40;;;;;;;;;;4988825;28;20049;-49
2021/01/16 03:00:24;;;;;;;3.25;0.80;;;;;;;;;;4991295;28;20396;-48
2021/01/16 03:02:50;;;;;;;1.25;0.43;;;;;;;;;;4990772;28;20044;-47
2021/01/16 03:05:20;;;;;;;1.67;0.50;;;;;;;;;;4990945;28;20042;-48
2021/01/16 03:07:47;;;;;;;2.95;0.70;;;;;;;;;;4990328;28;20806;-47
2021/01/16 03:10:15;;;;;;;2.80;0.60;;;;;;;;;;4989974;28;20104;-49
2021/01/16 03:12:41;;;;;;;2.08;0.50;;;;;;;;;;4990950;28;20541;-50
2021/01/16 03:15:11;;;;;;;1.65;0.50;;;;;;;;;;4989475;28;21045;-50
2021/01/16 03:17:45;;;;;;;2.45;0.50;;;;;;;;;;4981170;28;22517;-49
2021/01/16 03:20:21;;;;;;;3.55;0.80;;;;;;;;;;4993898;28;20767;-50
2021/01/16 03:22:49;;;;;;;2.30;0.60;;;;;;;;;;4993738;28;20120;-51
2021/01/16 03:25:22;;;;;;;3.05;0.50;;;;;;;;;;4995713;28;20026;-50
2021/01/16 03:27:48;;;;;;;2.80;0.77;;;;;;;;;;4993574;28;20030;-50
2021/01/16 03:30:15;;;;;;;3.53;1.15;;;;;;;;;;4995849;28;20050;-50
2021/01/16 03:32:42;;;;;;;2.92;0.57;;;;;;;;;;4994573;28;20494;-51
2021/01/16 03:35:08;;;;;;;2.80;0.50;;;;;;;;;;4995958;28;20042;-48
2021/01/16 03:37:34;;;;;;;2.38;0.50;;;;;;;;;;4994057;28;20088;-48
2021/01/16 03:40:00;;;;;;;2.22;0.45;;;;;;;;;;4977151;28;20050;-53
2021/01/16 03:42:26;;;;;;;2.35;0.60;;;;;;;;;;4994257;28;20041;-49
2021/01/16 03:44:52;;;;;;;3.88;0.40;;;;;;;;;;4991559;28;20517;-51
2021/01/16 03:47:17;;;;;;;2.00;0.50;;;;;;;;;;4993778;28;22023;-50
2021/01/16 03:49:43;;;;;;;1.35;0.50;;;;;;;;;;4993987;28;20509;-49
2021/01/16 03:52:09;;;;;;;2.05;0.50;;;;;;;;;;4995542;28;20042;-53
2021/01/16 03:54:35;;;;;;;2.08;0.50;;;;;;;;;;4995900;28;20557;-49
2021/01/16 03:57:04;;;;;;;1.35;0.40;;;;;;;;;;4994052;28;20422;-49
2021/01/16 03:59:30;;;;;;;1.98;0.50;;;;;;;;;;4995349;28;20057;-49
2021/01/16 04:01:56;;;;;;;1.58;0.50;;;;;;;;;;4996543;28;20039;-50
2021/01/16 04:04:22;;;;;;;1.48;0.40;;;;;;;;;;4996671;28;20406;-49
2021/01/16 04:06:48;;;;;;;1.38;0.40;;;;;;;;;;4994292;28;20042;-50
2021/01/16 04:09:14;;;;;;;2.75;0.68;;;;;;;;;;4994086;28;20058;-50
2021/01/16 04:11:40;;;;;;;2.22;0.50;;;;;;;;;;4987144;28;20042;-48
2021/01/16 04:14:06;;;;;;;1.80;0.50;;;;;;;;;;4994173;28;20038;-50
2021/01/16 04:16:33;;;;;;;2.13;0.50;;;;;;;;;;4992222;28;20082;-48
2021/01/16 04:18:59;;;;;;;2.10;0.50;;;;;;;;;;4991647;28;21021;-54
2021/01/16 04:21:25;;;;;;;2.38;0.50;;;;;;;;;;4993072;28;20052;-49
2021/01/16 04:23:51;;;;;;;2.45;0.60;;;;;;;;;;4994993;28;20038;-49
2021/01/16 04:26:17;;;;;;;1.63;0.50;;;;;;;;;;4992312;28;20096;-49
2021/01/16 04:28:43;;;;;;;1.65;0.43;;;;;;;;;;4992580;28;20038;-52
2021/01/16 04:31:09;;;;;;;1.88;0.50;;;;;;;;;;4993318;28;20049;-48
2021/01/16 04:33:35;;;;;;;2.35;0.40;;;;;;;;;;4992646;28;20100;-49
2021/01/16 04:36:01;;;;;;;1.40;0.43;;;;;;;;;;4991376;28;20042;-48
2021/01/16 04:38:27;;;;;;;0.98;0.40;;;;;;;;;;4991649;28;22227;-48
2021/01/16 04:40:53;;;;;;;3.38;0.60;;;;;;;;;;4993779;28;20058;-50
2021/01/16 04:43:20;;;;;;;1.52;0.50;;;;;;;;;;4992255;28;20070;-50
2021/01/16 04:45:46;;;;;;;2.10;0.52;;;;;;;;;;4994418;28;20133;-52
2021/01/16 04:48:14;;;;;;;1.83;0.50;;;;;;;;;;4993046;28;20138;-50
2021/01/16 04:50:40;;;;;;;1.77;0.60;;;;;;;;;;4993720;28;20042;-49
2021/01/16 04:53:09;;;;;;;3.22;0.60;;;;;;;;;;4990611;28;20577;-50
2021/01/16 04:55:37;;;;;;;1.95;0.50;;;;;;;;;;4991480;28;20048;-49
2021/01/16 04:58:04;;;;;;;1.85;0.50;;;;;;;;;;4973488;28;20049;-46
2021/01/16 05:00:31;;;;;;;2.70;0.50;;;;;;;;;;4984674;28;20145;-49
2021/01/16 05:03:02;;;;;;;1.95;0.57;;;;;;;;;;4993272;28;20042;-47
2021/01/16 05:05:28;;;;;;;1.77;0.52;;;;;;;;;;4990253;28;20030;-48
2021/01/16 05:07:55;;;;;;;2.58;0.50;;;;;;;;;;4993524;28;20030;-47
2021/01/16 05:10:22;;;;;;;1.88;0.60;;;;;;;;;;4975098;28;20034;-49
2021/01/16 05:12:58;;;;;;;1.67;0.50;;;;;;;;;;4992457;28;20052;-51
2021/01/16 05:15:27;;;;;;;3.28;0.60;;;;;;;;;;4990831;28;21050;-49
2021/01/16 05:18:04;;;;;;;1.02;0.40;;;;;;;;;;4995287;28;20046;-51
2021/01/16 05:20:30;;;;;;;2.08;0.50;;;;;;;;;;4993838;28;20050;-50
2021/01/16 05:25:45;;;;;;;1.65;0.47;;;;;;;;;;4994776;28;20045;-49
2021/01/16 05:28:13;;;;;;;2.15;0.55;;;;;;;;;;4996875;28;20048;-50
2021/01/16 05:30:45;;;;;;;1.50;0.40;;;;;;;;;;4996368;28;20038;-54
2021/01/16 05:33:11;;;;;;;1.45;0.50;;;;;;;;;;4998758;28;20451;-53
2021/01/16 05:35:37;;;;;;;1.63;0.50;;;;;;;;;;4998577;28;20050;-52
2021/01/16 05:38:04;;;;;;;1.90;0.60;;;;;;;;;;4999414;28;20038;-50
2021/01/16 05:40:30;;;;;;;1.58;0.47;;;;;;;;;;4994702;28;20057;-52
2021/01/16 05:42:58;;;;;;;6.55;0.55;;;;;;;;;;4993665;28;20041;-52
2021/01/16 05:45:25;;;;;;;1.88;0.50;;;;;;;;;;4977614;28;20800;-53
2021/01/16 05:47:52;;;;;;;2.30;0.50;;;;;;;;;;4985885;28;20053;-51
2021/01/16 05:50:22;;;;;;;2.42;0.50;;;;;;;;;;4993355;28;20074;-52
2021/01/16 05:52:48;;;;;;;1.88;0.60;;;;;;;;;;4996657;28;20072;-52
2021/01/16 05:55:17;;;;;;;1.75;0.50;;;;;;;;;;4995077;28;20066;-50
2021/01/16 05:57:46;;;;;;;1.23;0.50;;;;;;;;;;4993431;28;20041;-49
2021/01/16 06:00:21;;;;;;;1.10;0.40;;;;;;;;;;4993772;28;20121;-51
2021/01/16 06:02:48;;;;;;;4.07;0.70;;;;;;;;;;4989174;28;20498;-51
2021/01/16 06:05:14;;;;;;;2.00;0.50;;;;;;;;;;4992620;28;20388;-52
2021/01/16 06:07:41;;;;;;;3.25;0.60;;;;;;;;;;4991938;28;20513;-50
2021/01/16 06:10:11;;;;;;;1.92;0.50;;;;;;;;;;4992462;28;20042;-49
2021/01/16 06:12:38;;;;;;;1.15;0.40;;;;;;;;;;4991786;28;20194;-51
2021/01/16 06:15:12;;;;;;;3.65;0.50;;;;;;;;;;4991155;28;20120;-50
2021/01/16 06:17:38;;;;;;;2.08;0.50;;;;;;;;;;4990353;28;20070;-53
2021/01/16 06:20:07;;;;;;;2.38;0.50;;;;;;;;;;4990619;28;20046;-49
2021/01/16 06:22:33;;;;;;;2.05;0.40;;;;;;;;;;4991879;28;20042;-52
2021/01/16 06:25:01;;;;;;;1.85;0.60;;;;;;;;;;4994157;28;20073;-52
2021/01/16 06:27:27;;;;;;;2.10;0.40;;;;;;;;;;4992801;28;20137;-49
2021/01/16 06:29:58;;;;;;;1.88;0.50;;;;;;;;;;4992175;28;20134;-51
2021/01/16 06:32:25;;;;;;;0.80;0.38;;;;;;;;;;4991538;28;20058;-48
2021/01/16 06:35:10;;;;;;;1.35;0.45;;;;;;;;;;4993124;28;20049;-49
2021/01/16 06:37:46;;;;;;;1.05;0.43;;;;;;;;;;4991909;28;20042;-49
2021/01/16 06:40:14;;;;;;;1.73;0.50;;;;;;;;;;4993844;28;20046;-48
2021/01/16 06:42:40;;;;;;;1.55;0.40;;;;;;;;;;4991805;28;20518;-48
2021/01/16 06:45:07;;;;;;;1.40;0.40;;;;;;;;;;4991253;28;20094;-49
2021/01/16 06:47:34;;;;;;;1.73;0.50;;;;;;;;;;4990856;28;20100;-48
2021/01/16 06:50:00;;;;;;;1.80;0.50;;;;;;;;;;4991568;28;20041;-48
2021/01/16 06:52:33;;;;;;;1.75;0.50;;;;;;;;;;4975358;28;20038;-47
2021/01/16 06:54:59;;;;;;;1.63;0.50;;;;;;;;;;4997369;28;20096;-49
2021/01/16 06:57:25;;;;;;;2.80;0.50;;;;;;;;;;4995573;28;20038;-49
2021/01/16 06:59:57;;;;;;;1.15;0.40;;;;;;;;;;4989989;28;21007;-49
2021/01/16 07:02:36;;;;;;;1.25;0.40;;;;;;;;;;4996400;28;20045;-50
2021/01/16 07:05:19;;;;;;;3.95;0.50;;;;;;;;;;4994842;28;20043;-49
2021/01/16 07:07:48;;;;;;;2.78;0.45;;;;;;;;;;4993757;28;20038;-52
2021/01/16 07:10:15;;;;;;;2.80;0.40;;;;;;;;;;4995876;28;20125;-52
2021/01/16 07:12:42;;;;;;;4.03;0.40;;;;;;;;;;4996016;28;20041;-49
2021/01/16 07:15:09;;;;;;;1.67;0.43;;;;;;;;;;4995802;28;20053;-53
2021/01/16 07:17:36;;;;;;;1.73;0.40;;;;;;;;;;4995294;28;20526;-52
2021/01/16 07:20:03;;;;;;;0.75;0.35;;;;;;;;;;4997541;28;20056;-51
2021/01/16 07:22:29;;;;;;;2.67;0.60;;;;;;;;;;4996924;28;20496;-49
2021/01/16 07:24:56;;;;;;;0.95;0.40;;;;;;;;;;4996871;28;20052;-53
2021/01/16 07:27:23;;;;;;;0.82;0.30;;;;;;;;;;4994876;28;20038;-51
2021/01/16 07:29:49;;;;;;;1.25;0.43;;;;;;;;;;4997615;28;20394;-52
2021/01/16 07:32:15;;;;;;;1.40;0.45;;;;;;;;;;4997915;28;20049;-51
2021/01/16 07:34:44;;;;;;;1.95;0.50;;;;;;;;;;4998551;28;20097;-50
2021/01/16 07:37:11;;;;;;;1.40;0.50;;;;;;;;;;4997303;28;20073;-53
2021/01/16 07:39:43;;;;;;;1.58;0.50;;;;;;;;;;4977835;28;20054;-52
2021/01/16 07:42:13;;;;;;;1.00;0.32;;;;;;;;;;4995935;28;20042;-50
2021/01/16 07:44:43;;;;;;;0.93;0.40;;;;;;;;;;4995575;28;20035;-49
2021/01/16 07:47:20;;;;;;;1.50;0.40;;;;;;;;;;4996552;28;20557;-49
2021/01/16 07:49:57;;;;;;;1.48;0.50;;;;;;;;;;4994764;28;20138;-50
2021/01/16 07:52:25;;;;;;;2.75;0.50;;;;;;;;;;4995269;28;20070;-52
2021/01/16 07:55:03;;;;;;;0.40;0.30;;;;;;;;;;4994004;28;20038;-49
2021/01/16 07:57:30;;;;;;;1.15;0.40;;;;;;;;;;4994037;28;20502;-48
2021/01/16 07:59:56;;;;;;;2.00;0.40;;;;;;;;;;4978514;28;20407;-50
2021/01/16 08:02:28;;;;;;;1.75;0.40;;;;;;;;;;4990973;28;20049;-49
2021/01/16 08:04:54;;;;;;;1.20;0.40;;;;;;;;;;4994369;28;20054;-50
2021/01/16 08:07:28;;;;;;;1.00;0.40;;;;;;;;;;4993401;28;20153;-48
2021/01/16 08:09:55;;;;;;;1.02;0.40;;;;;;;;;;4995602;28;20042;-49
2021/01/16 08:12:25;;;;;;;0.88;0.40;;;;;;;;;;4994980;28;20038;-48
2021/01/16 08:14:51;;;;;;;1.33;0.40;;;;;;;;;;4993152;28;20131;-50
2021/01/16 08:17:27;;;;;;;1.33;0.40;;;;;;;;;;4994790;28;20057;-49
2021/01/16 08:20:29;;;;;;;1.98;0.50;;;;;;;;;;4996274;28;22789;-48
2021/01/16 08:22:57;;;;;;;0.52;0.30;;;;;;;;;;4940358;28;20408;-49
2021/01/16 08:25:25;;;;;;;1.70;0.50;;;;;;;;;;4984258;28;20085;-49
2021/01/16 08:27:52;;;;;;;1.60;0.40;;;;;;;;;;4978670;28;20038;-49
2021/01/16 08:30:20;;;;;;;2.40;0.43;;;;;;;;;;4993020;28;20514;-49
2021/01/16 08:32:58;;;;;;;1.90;0.50;;;;;;;;;;4992882;28;20045;-50
2021/01/16 08:35:25;;;;;;;1.25;0.40;;;;;;;;;;4992313;28;20084;-49
2021/01/16 08:37:51;;;;;;;2.28;0.50;;;;;;;;;;4995646;28;20125;-47
2021/01/16 08:40:46;;;;;;;1.88;0.52;;;;;;;;;;4982600;28;20050;-48
2021/01/16 08:43:12;;;;;;;1.33;0.40;;;;;;;;;;4942100;28;20106;-49
2021/01/16 08:45:38;;;;;;;1.23;0.45;;;;;;;;;;4980785;28;20150;-49
2021/01/16 08:48:04;;;;;;;1.45;0.40;;;;;;;;;;4998251;28;20042;-49
2021/01/16 08:50:35;;;;;;;1.58;0.40;;;;;;;;;;4987661;28;20500;-48
2021/01/16 08:53:20;;;;;;;1.73;0.45;;;;;;;;;;4995382;28;20036;-48
2021/01/16 08:55:46;;;;;;;0.80;0.32;;;;;;;;;;4993778;28;20042;-50
2021/01/16 08:58:12;;;;;;;2.92;0.40;;;;;;;;;;4995170;28;20100;-48
2021/01/16 09:00:39;;;;;;;1.85;0.47;;;;;;;;;;4993142;28;20058;-47
2021/01/16 09:03:20;;;;;;;1.38;0.40;;;;;;;;;;4994728;28;20046;-49
2021/01/16 09:05:47;;;;;;;0.88;0.40;;;;;;;;;;4991690;28;20107;-49
2021/01/16 09:08:22;;;;;;;1.80;0.50;;;;;;;;;;4994184;28;20563;-50
2021/01/16 09:10:49;;;;;;;1.95;0.40;;;;;;;;;;4994269;28;20049;-48
2021/01/16 09:13:32;;;;;;;0.95;0.40;;;;;;;;;;4993727;28;20038;-49
2021/01/16 09:15:58;;;;;;;1.85;0.40;;;;;;;;;;4992327;28;20041;-48
2021/01/16 09:18:24;;;;;;;1.35;0.38;;;;;;;;;;4991933;28;20076;-49
2021/01/16 09:20:53;;;;;;;1.35;0.40;;;;;;;;;;4992691;28;20054;-51
2021/01/16 09:23:19;;;;;;;0.80;0.35;;;;;;;;;;4994144;28;20108;-49
2021/01/16 09:25:45;;;;;;;1.25;0.40;;;;;;;;;;4993326;28;20132;-47
2021/01/16 09:28:11;;;;;;;1.35;0.43;;;;;;;;;;4992234;28;20127;-56
2021/01/16 09:30:37;;;;;;;0.82;0.35;;;;;;;;;;4990708;28;20041;-58
2021/01/16 09:33:22;;;;;;;0.52;0.35;;;;;;;;;;4990818;28;20743;-56
2021/01/16 09:35:48;;;;;;;1.10;0.43;;;;;;;;;;4991623;28;20050;-58
2021/01/16 09:38:15;;;;;;;3.15;0.40;;;;;;;;;;4990850;28;20037;-57
2021/01/16 09:40:41;;;;;;;1.65;0.40;;;;;;;;;;4991356;28;20054;-58
2021/01/16 09:43:20;;;;;;;0.77;0.30;;;;;;;;;;4994215;28;20073;-57
2021/01/16 09:45:49;;;;;;;2.22;0.40;;;;;;;;;;4992200;28;20073;-57
2021/01/16 09:48:45;;;;;;;1.42;0.40;;;;;;;;;;4993342;28;20601;-55
2021/01/16 09:51:12;;;;;;;0.88;0.30;;;;;;;;;;4992165;28;20030;-57
2021/01/16 09:53:39;;;;;;;1.25;0.40;;;;;;;;;;4990476;28;20046;-58
2021/01/16 09:56:06;;;;;;;3.58;0.95;;;;;;;;;;4990906;28;20042;-54
2021/01/16 09:58:36;;;;;;;1.52;0.50;;;;;;;;;;4991333;28;20116;-58
2021/01/16 10:01:24;;;;;;;1.23;0.40;;;;;;;;;;4991574;28;20057;-56
2021/01/16 10:03:51;;;;;;;2.40;0.47;;;;;;;;;;4990731;28;20096;-54
2021/01/16 10:06:18;;;;;;;1.58;0.40;;;;;;;;;;4990682;28;20068;-56
2021/01/16 10:08:44;;;;;;;3.80;0.40;;;;;;;;;;4990683;28;20791;-57
2021/01/16 10:11:12;;;;;;;0.98;0.40;;;;;;;;;;4991775;28;20045;-58
2021/01/16 10:13:39;;;;;;;1.27;0.40;;;;;;;;;;4990129;28;20047;-58
2021/01/16 10:16:06;;;;;;;2.08;0.50;;;;;;;;;;4989205;28;20038;-58
2021/01/16 10:18:33;;;;;;;1.50;0.50;;;;;;;;;;4990818;28;20039;-58
2021/01/16 10:20:59;;;;;;;0.45;0.30;;;;;;;;;;4992911;28;20101;-56
2021/01/16 10:23:28;;;;;;;2.00;0.40;;;;;;;;;;4991751;28;20626;-56
2021/01/16 10:26:08;;;;;;;2.20;0.45;;;;;;;;;;4992734;28;20132;-57
2021/01/16 10:28:36;;;;;;;0.95;0.40;;;;;;;;;;4991241;28;20076;-58
2021/01/16 10:31:06;;;;;;;1.10;0.40;;;;;;;;;;4991837;28;20122;-57
2021/01/16 10:33:36;;;;;;;2.63;0.43;;;;;;;;;;4989933;28;20498;-57
2021/01/16 10:36:07;;;;;;;3.92;0.57;;;;;;;;;;4989664;28;20229;-56
2021/01/16 10:38:43;;;;;;;1.27;0.40;;;;;;;;;;4989459;28;20035;-58
2021/01/16 10:41:10;;;;;;;0.95;0.35;;;;;;;;;;4992785;28;20911;-57
2021/01/16 10:43:36;;;;;;;2.78;0.40;;;;;;;;;;4990487;28;20070;-55
2021/01/16 10:46:09;;;;;;;0.60;0.40;;;;;;;;;;4990163;28;20041;-56
2021/01/16 10:48:38;;;;;;;1.30;0.40;;;;;;;;;;4991524;28;20046;-58
2021/01/16 10:51:05;;;;;;;1.70;0.50;;;;;;;;;;4991112;28;20042;-57
2021/01/16 10:53:38;;;;;;;1.23;0.40;;;;;;;;;;4990136;28;20041;-57
2021/01/16 10:56:08;;;;;;;1.85;0.40;;;;;;;;;;4989251;28;22086;-56
2021/01/16 10:58:34;;;;;;;1.48;0.40;;;;;;;;;;4989800;28;20120;-58
2021/01/16 11:01:01;;;;;;;1.08;0.35;;;;;;;;;;4991901;28;20062;-57
2021/01/16 11:03:30;;;;;;;0.82;0.40;;;;;;;;;;4990770;28;20080;-58
2021/01/16 11:05:57;;;;;;;1.98;0.50;;;;;;;;;;4991471;28;20045;-58
2021/01/16 11:08:31;;;;;;;3.30;0.50;;;;;;;;;;4992449;28;20125;-58
2021/01/16 11:10:57;;;;;;;3.03;0.50;;;;;;;;;;4991046;28;20427;-58
2021/01/16 11:13:23;;;;;;;0.80;0.40;;;;;;;;;;4991455;28;20137;-58
2021/01/16 11:15:56;;;;;;;1.02;0.38;;;;;;;;;;4990815;28;20142;-58
2021/01/16 11:18:29;;;;;;;0.68;0.30;;;;;;;;;;4990646;28;20529;-58
2021/01/16 11:20:59;;;;;;;1.38;0.40;;;;;;;;;;4990518;28;20101;-58
2021/01/16 11:23:25;;;;;;;1.15;0.40;;;;;;;;;;4991039;28;20053;-57
2021/01/16 11:25:51;;;;;;;0.90;0.40;;;;;;;;;;4990339;28;20410;-58
2021/01/16 11:28:21;;;;;;;0.60;0.30;;;;;;;;;;4992751;28;20060;-56
2021/01/16 11:30:48;;;;;;;1.10;0.40;;;;;;;;;;4991474;28;20052;-56
2021/01/16 11:33:17;;;;;;;0.63;0.40;;;;;;;;;;4993793;28;20497;-58
2021/01/16 11:35:43;;;;;;;0.93;0.40;;;;;;;;;;4992237;28;20487;-58
2021/01/16 11:38:28;;;;;;;0.60;0.30;;;;;;;;;;4989804;28;20566;-58
2021/01/16 11:40:54;;;;;;;1.33;0.43;;;;;;;;;;4995400;28;20073;-58
2021/01/16 11:43:25;;;;;;;1.17;0.43;;;;;;;;;;4993322;28;20165;-58
2021/01/16 11:46:00;;;;;;;1.35;0.40;;;;;;;;;;4994330;28;20663;-56
2021/01/16 11:48:26;;;;;;;1.10;0.40;;;;;;;;;;4993926;28;20042;-58
2021/01/16 11:50:52;;;;;;;1.15;0.40;;;;;;;;;;4978856;28;20045;-57
2021/01/16 11:53:18;;;;;;;0.77;0.35;;;;;;;;;;4995335;28;20092;-57
2021/01/16 11:55:43;;;;;;;2.42;0.50;;;;;;;;;;4993255;28;20034;-55
2021/01/16 11:58:09;;;;;;;1.20;0.40;;;;;;;;;;4993307;28;20486;-58
2021/01/16 12:00:36;;;;;;;1.45;0.40;;;;;;;;;;4995676;28;20048;-57
2021/01/16 12:03:02;;;;;;;1.02;0.40;;;;;;;;;;4993739;28;20117;-58
2021/01/16 12:05:28;;;;;;;0.82;0.30;;;;;;;;;;4994186;28;20046;-58
2021/01/16 12:07:55;;;;;;;1.55;0.40;;;;;;;;;;4994892;28;20069;-57
2021/01/16 12:10:22;;;;;;;1.75;0.50;;;;;;;;;;4992854;28;20491;-57
2021/01/16 12:12:50;;;;;;;1.10;0.30;;;;;;;;;;4995162;28;20038;-57
2021/01/16 12:15:16;;;;;;;0.85;0.30;;;;;;;;;;4992343;28;20042;-57
2021/01/16 12:17:44;;;;;;;1.52;0.40;;;;;;;;;;4991971;28;20046;-57
2021/01/16 12:20:10;;;;;;;0.68;0.40;;;;;;;;;;4996191;28;20050;-57
2021/01/16 12:22:38;;;;;;;1.88;0.47;;;;;;;;;;4995528;28;20033;-57
2021/01/16 12:25:06;;;;;;;0.88;0.40;;;;;;;;;;4994962;28;20034;-58
2021/01/16 12:27:33;;;;;;;1.02;0.30;;;;;;;;;;4993735;28;20478;-58
2021/01/16 12:30:00;;;;;;;0.57;0.30;;;;;;;;;;4993044;28;20037;-57
2021/01/16 12:32:25;;;;;;;3.25;0.50;;;;;;;;;;4993780;28;20057;-57
2021/01/16 12:34:52;;;;;;;0.73;0.32;;;;;;;;;;4990036;28;20046;-57
2021/01/16 12:37:27;;;;;;;1.35;0.40;;;;;;;;;;4992792;28;20038;-58
2021/01/16 12:39:53;;;;;;;1.67;0.45;;;;;;;;;;4993808;28;20120;-57
2021/01/16 12:42:19;;;;;;;1.58;0.50;;;;;;;;;;4994996;28;20467;-57
2021/01/16 12:44:45;;;;;;;0.73;0.40;;;;;;;;;;4994903;28;20050;-57
2021/01/16 12:47:15;;;;;;;2.30;0.50;;;;;;;;;;4993373;28;20395;-55
2021/01/16 12:49:41;;;;;;;2.15;0.50;;;;;;;;;;4993841;28;20134;-58
2021/01/16 12:52:09;;;;;;;1.15;0.40;;;;;;;;;;4993283;28;20034;-58
2021/01/16 12:54:35;;;;;;;1.13;0.43;;;;;;;;;;4991814;28;20129;-56
2021/01/16 12:57:02;;;;;;;0.77;0.30;;;;;;;;;;4992535;28;20048;-56
2021/01/16 12:59:27;;;;;;;1.60;0.50;;;;;;;;;;4994884;28;20156;-57
2021/01/16 13:01:53;;;;;;;4.00;0.60;;;;;;;;;;4993082;28;20125;-57
2021/01/16 13:04:20;;;;;;;1.02;0.30;;;;;;;;;;4992734;28;20042;-57
2021/01/16 13:06:46;;;;;;;1.67;0.50;;;;;;;;;;4992961;28;20049;-56
2021/01/16 13:09:14;;;;;;;1.65;0.35;;;;;;;;;;4993163;28;20042;-58
2021/01/16 13:11:41;;;;;;;1.98;0.60;;;;;;;;;;4992712;28;20080;-55
2021/01/16 13:14:07;;;;;;;5.25;0.50;;;;;;;;;;4992660;28;20049;-54
2021/01/16 13:16:46;;;;;;;1.13;0.40;;;;;;;;;;4991443;28;20073;-57
2021/01/16 13:19:14;;;;;;;1.55;0.40;;;;;;;;;;4993955;28;20049;-57
2021/01/16 13:21:40;;;;;;;2.97;0.50;;;;;;;;;;4991154;28;20038;-57
2021/01/16 13:24:07;;;;;;;2.00;0.50;;;;;;;;;;4992466;28;20037;-58
2021/01/16 13:26:39;;;;;;;3.25;0.50;;;;;;;;;;4991346;28;20411;-54
2021/01/16 13:29:06;;;;;;;2.65;0.50;;;;;;;;;;4992580;28;20048;-57
2021/01/16 13:31:32;;;;;;;3.55;0.32;;;;;;;;;;4992476;28;20502;-57
2021/01/16 13:33:58;;;;;;;1.02;0.40;;;;;;;;;;4992159;28;20130;-57
2021/01/16 13:36:25;;;;;;;1.50;0.47;;;;;;;;;;4993698;28;20057;-57
2021/01/16 13:38:53;;;;;;;1.20;0.40;;;;;;;;;;4993568;28;20073;-56
2021/01/16 13:41:19;;;;;;;2.22;0.40;;;;;;;;;;4992784;28;20060;-58
2021/01/16 13:43:47;;;;;;;2.40;0.35;;;;;;;;;;4995043;28;20115;-57
2021/01/16 13:46:13;;;;;;;1.60;0.40;;;;;;;;;;4991425;28;20168;-56
2021/01/16 13:48:43;;;;;;;4.10;0.50;;;;;;;;;;4991597;28;20062;-57
2021/01/16 13:51:21;;;;;;;2.17;0.50;;;;;;;;;;4993386;28;20099;-56
2021/01/16 13:53:54;;;;;;;1.10;0.38;;;;;;;;;;4992130;28;20058;-56
2021/01/16 13:56:20;;;;;;;4.35;0.45;;;;;;;;;;4991186;28;20151;-57
2021/01/16 13:58:47;;;;;;;2.85;0.43;;;;;;;;;;4991849;28;20125;-56
2021/01/16 14:01:30;;;;;;;2.13;0.40;;;;;;;;;;4992816;28;20050;-58
2021/01/16 14:04:00;;;;;;;2.03;0.45;;;;;;;;;;4993280;28;20045;-57
2021/01/16 14:06:26;;;;;;;1.30;0.40;;;;;;;;;;4992203;28;20453;-57
2021/01/16 14:08:56;;;;;;;3.03;0.50;;;;;;;;;;4992435;28;20068;-55
2021/01/16 14:11:22;;;;;;;2.17;0.60;;;;;;;;;;4992171;28;20046;-57
2021/01/16 14:13:47;;;;;;;1.48;0.40;;;;;;;;;;4993327;28;20093;-57
2021/01/16 14:16:13;;;;;;;2.50;0.50;;;;;;;;;;4991769;28;20506;-57
2021/01/16 14:18:40;;;;;;;1.75;0.50;;;;;;;;;;4995886;28;20702;-58
2021/01/16 14:21:16;;;;;;;2.85;0.40;;;;;;;;;;4993685;28;20054;-57
2021/01/16 14:23:41;;;;;;;2.83;0.43;;;;;;;;;;4995822;28;20045;-57
2021/01/16 14:26:15;;;;;;;2.20;0.40;;;;;;;;;;4994119;28;20053;-57
2021/01/16 14:28:41;;;;;;;1.60;0.40;;;;;;;;;;4994299;28;20037;-57
2021/01/16 14:31:16;;;;;;;2.28;0.40;;;;;;;;;;4994300;28;20065;-59
2021/01/16 14:33:43;;;;;;;3.50;0.75;;;;;;;;;;4992047;28;20054;-59
2021/01/16 14:36:26;;;;;;;1.45;0.45;;;;;;;;;;4994678;28;20168;-56
2021/01/16 14:39:10;;;;;;;1.70;0.40;;;;;;;;;;4995025;28;20058;-59
2021/01/16 14:41:47;;;;;;;2.15;0.50;;;;;;;;;;4993347;28;20049;-57
2021/01/16 14:44:13;;;;;;;4.57;0.52;;;;;;;;;;4994374;28;20042;-57
2021/01/16 14:46:39;;;;;;;4.03;0.43;;;;;;;;;;4991250;28;20125;-58
2021/01/16 14:49:08;;;;;;;2.80;0.50;;;;;;;;;;4992289;28;20057;-58
2021/01/16 14:51:41;;;;;;;1.45;0.43;;;;;;;;;;4991258;28;20543;-57
2021/01/16 14:54:07;;;;;;;1.67;0.47;;;;;;;;;;4992773;28;20134;-56